sensor_id;sensor_type;location;lat;lon;timestamp;P1;durP1;ratioP1;P2;durP2;ratioP2
21158;SDS011;10737;45.436;4.390;2023-11-19T00:00:14;16.95;;;13.57;;
21158;SDS011;10737;45.436;4.390;2023-11-19T00:05:18;34.90;;;27.98;;
21158;SDS011;10737;45.436;4.390;2023-11-19T00:10:23;22.95;;;19.27;;
21158;SDS011;10737;45.436;4.390;2023-11-19T00:15:27;15.55;;;13.40;;
21158;SDS011;10737;45.436;4.390;2023-11-19T00:20:30;21.38;;;13.07;;
21158;SDS011;10737;45.436;4.390;2023-11-19T00:25:34;12.45;;;11.18;;
21158;SDS011;10737;45.436;4.390;2023-11-19T00:30:38;11.32;;;9.27;;
21158;SDS011;10737;45.436;4.390;2023-11-19T00:35:42;12.00;;;10.77;;
21158;SDS011;10737;45.436;4.390;2023-11-19T00:40:47;11.50;;;10.18;;
21158;SDS011;10737;45.436;4.390;2023-11-19T00:45:50;17.23;;;13.85;;
21158;SDS011;10737;45.436;4.390;2023-11-19T00:50:53;12.00;;;9.52;;
21158;SDS011;10737;45.436;4.390;2023-11-19T00:55:58;13.65;;;11.65;;
21158;SDS011;10737;45.436;4.390;2023-11-19T01:01:01;15.43;;;12.10;;
21158;SDS011;10737;45.436;4.390;2023-11-19T01:06:04;17.23;;;14.52;;
21158;SDS011;10737;45.436;4.390;2023-11-19T01:11:09;13.80;;;11.45;;
21158;SDS011;10737;45.436;4.390;2023-11-19T01:16:22;11.02;;;10.00;;
21158;SDS011;10737;45.436;4.390;2023-11-19T01:21:25;12.98;;;10.38;;
21158;SDS011;10737;45.436;4.390;2023-11-19T01:26:31;12.05;;;10.90;;
21158;SDS011;10737;45.436;4.390;2023-11-19T01:31:52;16.95;;;10.55;;
21158;SDS011;10737;45.436;4.390;2023-11-19T01:37:14;10.27;;;9.20;;
21158;SDS011;10737;45.436;4.390;2023-11-19T01:42:18;9.95;;;8.60;;
21158;SDS011;10737;45.436;4.390;2023-11-19T01:47:22;9.32;;;8.45;;
21158;SDS011;10737;45.436;4.390;2023-11-19T01:52:26;10.65;;;9.50;;
21158;SDS011;10737;45.436;4.390;2023-11-19T01:57:31;9.35;;;8.48;;
21158;SDS011;10737;45.436;4.390;2023-11-19T02:02:34;9.60;;;8.70;;
21158;SDS011;10737;45.436;4.390;2023-11-19T02:07:37;8.68;;;7.88;;
21158;SDS011;10737;45.436;4.390;2023-11-19T02:12:42;10.85;;;8.90;;
21158;SDS011;10737;45.436;4.390;2023-11-19T02:17:46;9.43;;;8.63;;
21158;SDS011;10737;45.436;4.390;2023-11-19T02:22:49;9.55;;;8.05;;
21158;SDS011;10737;45.436;4.390;2023-11-19T02:27:56;9.90;;;8.93;;
21158;SDS011;10737;45.436;4.390;2023-11-19T02:33:18;9.25;;;8.45;;
21158;SDS011;10737;45.436;4.390;2023-11-19T02:38:21;9.25;;;8.40;;
21158;SDS011;10737;45.436;4.390;2023-11-19T02:43:25;10.52;;;9.38;;
21158;SDS011;10737;45.436;4.390;2023-11-19T02:48:29;9.95;;;8.95;;
21158;SDS011;10737;45.436;4.390;2023-11-19T02:53:51;9.70;;;8.60;;
21158;SDS011;10737;45.436;4.390;2023-11-19T02:59:14;9.93;;;8.30;;
21158;SDS011;10737;45.436;4.390;2023-11-19T03:04:29;9.48;;;8.57;;
21158;SDS011;10737;45.436;4.390;2023-11-19T03:09:32;9.98;;;9.02;;
21158;SDS011;10737;45.436;4.390;2023-11-19T03:14:37;9.13;;;8.18;;
21158;SDS011;10737;45.436;4.390;2023-11-19T03:19:41;9.27;;;8.43;;
21158;SDS011;10737;45.436;4.390;2023-11-19T03:24:44;11.02;;;8.65;;
21158;SDS011;10737;45.436;4.390;2023-11-19T03:29:49;8.55;;;7.75;;
21158;SDS011;10737;45.436;4.390;2023-11-19T03:34:52;9.32;;;8.48;;
21158;SDS011;10737;45.436;4.390;2023-11-19T03:39:56;12.82;;;10.70;;
21158;SDS011;10737;45.436;4.390;2023-11-19T03:45:04;9.90;;;8.95;;
21158;SDS011;10737;45.436;4.390;2023-11-19T03:50:08;9.25;;;8.40;;
21158;SDS011;10737;45.436;4.390;2023-11-19T03:55:12;9.27;;;8.30;;
21158;SDS011;10737;45.436;4.390;2023-11-19T04:00:17;8.75;;;7.85;;
21158;SDS011;10737;45.436;4.390;2023-11-19T04:05:21;8.15;;;7.55;;
21158;SDS011;10737;45.436;4.390;2023-11-19T04:10:25;9.82;;;7.50;;
21158;SDS011;10737;45.436;4.390;2023-11-19T04:15:32;8.10;;;7.40;;
21158;SDS011;10737;45.436;4.390;2023-11-19T04:20:35;7.75;;;7.00;;
21158;SDS011;10737;45.436;4.390;2023-11-19T04:25:38;7.78;;;7.07;;
21158;SDS011;10737;45.436;4.390;2023-11-19T04:31:01;7.88;;;7.07;;
21158;SDS011;10737;45.436;4.390;2023-11-19T04:36:05;7.18;;;6.68;;
21158;SDS011;10737;45.436;4.390;2023-11-19T04:41:09;7.60;;;6.88;;
21158;SDS011;10737;45.436;4.390;2023-11-19T04:46:14;8.27;;;7.57;;
21158;SDS011;10737;45.436;4.390;2023-11-19T04:51:17;7.68;;;7.00;;
21158;SDS011;10737;45.436;4.390;2023-11-19T04:56:20;8.60;;;6.28;;
21158;SDS011;10737;45.436;4.390;2023-11-19T05:01:26;9.93;;;7.68;;
21158;SDS011;10737;45.436;4.390;2023-11-19T05:06:29;7.32;;;6.60;;
21158;SDS011;10737;45.436;4.390;2023-11-19T05:11:32;6.32;;;5.93;;
21158;SDS011;10737;45.436;4.390;2023-11-19T05:16:37;6.85;;;6.22;;
21158;SDS011;10737;45.436;4.390;2023-11-19T05:21:42;8.00;;;7.30;;
21158;SDS011;10737;45.436;4.390;2023-11-19T05:27:04;7.13;;;6.57;;
21158;SDS011;10737;45.436;4.390;2023-11-19T05:32:28;7.35;;;6.65;;
21158;SDS011;10737;45.436;4.390;2023-11-19T05:37:32;7.18;;;6.68;;
21158;SDS011;10737;45.436;4.390;2023-11-19T05:42:37;7.10;;;6.40;;
21158;SDS011;10737;45.436;4.390;2023-11-19T05:47:42;7.20;;;6.60;;
21158;SDS011;10737;45.436;4.390;2023-11-19T05:52:45;6.93;;;6.40;;
21158;SDS011;10737;45.436;4.390;2023-11-19T05:57:49;7.80;;;7.10;;
21158;SDS011;10737;45.436;4.390;2023-11-19T06:02:55;7.47;;;6.88;;
21158;SDS011;10737;45.436;4.390;2023-11-19T06:07:58;7.03;;;6.43;;
21158;SDS011;10737;45.436;4.390;2023-11-19T06:13:01;7.82;;;7.00;;
21158;SDS011;10737;45.436;4.390;2023-11-19T06:18:08;6.95;;;6.45;;
21158;SDS011;10737;45.436;4.390;2023-11-19T06:23:13;7.05;;;6.55;;
21158;SDS011;10737;45.436;4.390;2023-11-19T06:28:16;6.47;;;5.88;;
21158;SDS011;10737;45.436;4.390;2023-11-19T06:33:39;6.10;;;5.65;;
21158;SDS011;10737;45.436;4.390;2023-11-19T06:38:42;6.40;;;5.60;;
21158;SDS011;10737;45.436;4.390;2023-11-19T06:43:45;6.60;;;6.10;;
21158;SDS011;10737;45.436;4.390;2023-11-19T06:48:50;8.43;;;5.68;;
21158;SDS011;10737;45.436;4.390;2023-11-19T06:53:53;6.85;;;6.35;;
21158;SDS011;10737;45.436;4.390;2023-11-19T06:58:56;6.68;;;6.13;;
21158;SDS011;10737;45.436;4.390;2023-11-19T07:04:01;7.25;;;6.75;;
21158;SDS011;10737;45.436;4.390;2023-11-19T07:09:10;6.28;;;5.68;;
21158;SDS011;10737;45.436;4.390;2023-11-19T07:14:13;6.60;;;6.10;;
21158;SDS011;10737;45.436;4.390;2023-11-19T07:19:17;6.30;;;5.88;;
21158;SDS011;10737;45.436;4.390;2023-11-19T07:24:21;5.32;;;4.95;;
21158;SDS011;10737;45.436;4.390;2023-11-19T07:29:24;6.20;;;5.43;;
21158;SDS011;10737;45.436;4.390;2023-11-19T07:34:31;11.40;;;7.53;;
21158;SDS011;10737;45.436;4.390;2023-11-19T07:39:34;6.18;;;5.57;;
21158;SDS011;10737;45.436;4.390;2023-11-19T07:44:39;5.97;;;5.57;;
21158;SDS011;10737;45.436;4.390;2023-11-19T07:49:44;5.88;;;5.38;;
21158;SDS011;10737;45.436;4.390;2023-11-19T07:54:47;5.68;;;5.28;;
21158;SDS011;10737;45.436;4.390;2023-11-19T07:59:51;5.65;;;5.35;;
21158;SDS011;10737;45.436;4.390;2023-11-19T08:04:55;5.88;;;5.47;;
21158;SDS011;10737;45.436;4.390;2023-11-19T08:09:59;5.43;;;4.93;;
21158;SDS011;10737;45.436;4.390;2023-11-19T08:15:03;5.70;;;5.05;;
21158;SDS011;10737;45.436;4.390;2023-11-19T08:20:08;7.47;;;6.88;;
21158;SDS011;10737;45.436;4.390;2023-11-19T08:25:12;11.65;;;8.60;;
21158;SDS011;10737;45.436;4.390;2023-11-19T08:30:15;7.72;;;6.80;;
21158;SDS011;10737;45.436;4.390;2023-11-19T08:35:20;5.97;;;5.40;;
21158;SDS011;10737;45.436;4.390;2023-11-19T08:40:23;5.40;;;5.00;;
21158;SDS011;10737;45.436;4.390;2023-11-19T08:45:46;5.40;;;5.00;;
21158;SDS011;10737;45.436;4.390;2023-11-19T08:50:50;6.00;;;5.10;;
21158;SDS011;10737;45.436;4.390;2023-11-19T08:55:53;6.15;;;4.57;;
21158;SDS011;10737;45.436;4.390;2023-11-19T09:00:57;5.03;;;4.65;;
21158;SDS011;10737;45.436;4.390;2023-11-19T09:06:01;5.82;;;5.30;;
21158;SDS011;10737;45.436;4.390;2023-11-19T09:11:08;5.88;;;5.50;;
21158;SDS011;10737;45.436;4.390;2023-11-19T09:16:11;6.55;;;5.95;;
21158;SDS011;10737;45.436;4.390;2023-11-19T09:21:17;7.15;;;6.45;;
21158;SDS011;10737;45.436;4.390;2023-11-19T09:26:20;5.80;;;5.40;;
21158;SDS011;10737;45.436;4.390;2023-11-19T09:31:24;8.93;;;8.10;;
21158;SDS011;10737;45.436;4.390;2023-11-19T09:36:28;6.40;;;5.90;;
21158;SDS011;10737;45.436;4.390;2023-11-19T09:41:31;5.90;;;5.30;;
21158;SDS011;10737;45.436;4.390;2023-11-19T09:46:36;8.07;;;7.25;;
21158;SDS011;10737;45.436;4.390;2023-11-19T09:51:59;5.78;;;5.28;;
21158;SDS011;10737;45.436;4.390;2023-11-19T09:57:21;5.20;;;4.82;;
21158;SDS011;10737;45.436;4.390;2023-11-19T10:02:24;6.03;;;5.53;;
21158;SDS011;10737;45.436;4.390;2023-11-19T10:07:30;6.07;;;5.68;;
21158;SDS011;10737;45.436;4.390;2023-11-19T10:12:34;6.30;;;5.68;;
21158;SDS011;10737;45.436;4.390;2023-11-19T10:17:37;7.65;;;6.88;;
21158;SDS011;10737;45.436;4.390;2023-11-19T10:22:42;7.57;;;6.40;;
21158;SDS011;10737;45.436;4.390;2023-11-19T10:28:04;7.13;;;5.90;;
21158;SDS011;10737;45.436;4.390;2023-11-19T10:33:07;5.18;;;4.80;;
21158;SDS011;10737;45.436;4.390;2023-11-19T10:38:14;7.90;;;5.38;;
21158;SDS011;10737;45.436;4.390;2023-11-19T10:43:18;6.28;;;5.07;;
21158;SDS011;10737;45.436;4.390;2023-11-19T10:48:21;4.75;;;4.38;;
21158;SDS011;10737;45.436;4.390;2023-11-19T10:53:28;6.03;;;5.50;;
21158;SDS011;10737;45.436;4.390;2023-11-19T10:58:32;5.68;;;5.07;;
21158;SDS011;10737;45.436;4.390;2023-11-19T11:03:37;5.82;;;5.35;;
21158;SDS011;10737;45.436;4.390;2023-11-19T11:09:02;5.00;;;4.70;;
21158;SDS011;10737;45.436;4.390;2023-11-19T11:14:07;7.30;;;6.50;;
21158;SDS011;10737;45.436;4.390;2023-11-19T11:19:10;6.55;;;5.88;;
21158;SDS011;10737;45.436;4.390;2023-11-19T11:24:23;6.15;;;5.47;;
21158;SDS011;10737;45.436;4.390;2023-11-19T11:29:31;5.60;;;5.25;;
21158;SDS011;10737;45.436;4.390;2023-11-19T11:34:47;5.32;;;5.03;;
21158;SDS011;10737;45.436;4.390;2023-11-19T11:39:56;5.30;;;4.90;;
21158;SDS011;10737;45.436;4.390;2023-11-19T11:45:01;5.13;;;4.82;;
21158;SDS011;10737;45.436;4.390;2023-11-19T11:50:07;4.82;;;4.57;;
21158;SDS011;10737;45.436;4.390;2023-11-19T11:55:13;4.88;;;4.57;;
21158;SDS011;10737;45.436;4.390;2023-11-19T12:00:36;5.20;;;4.90;;
21158;SDS011;10737;45.436;4.390;2023-11-19T12:05:40;5.10;;;4.80;;
21158;SDS011;10737;45.436;4.390;2023-11-19T12:10:47;5.22;;;4.93;;
21158;SDS011;10737;45.436;4.390;2023-11-19T12:16:09;5.47;;;5.00;;
21158;SDS011;10737;45.436;4.390;2023-11-19T12:21:27;9.07;;;8.27;;
21158;SDS011;10737;45.436;4.390;2023-11-19T12:26:35;5.68;;;5.22;;
21158;SDS011;10737;45.436;4.390;2023-11-19T12:31:38;5.30;;;4.90;;
21158;SDS011;10737;45.436;4.390;2023-11-19T12:37:05;5.47;;;5.00;;
21158;SDS011;10737;45.436;4.390;2023-11-19T12:42:10;5.28;;;4.78;;
21158;SDS011;10737;45.436;4.390;2023-11-19T12:47:14;9.38;;;8.48;;
21158;SDS011;10737;45.436;4.390;2023-11-19T12:52:20;5.60;;;5.18;;
21158;SDS011;10737;45.436;4.390;2023-11-19T12:57:36;6.15;;;5.55;;
21158;SDS011;10737;45.436;4.390;2023-11-19T13:02:46;5.55;;;5.07;;
21158;SDS011;10737;45.436;4.390;2023-11-19T13:07:50;5.05;;;4.70;;
21158;SDS011;10737;45.436;4.390;2023-11-19T13:13:01;4.93;;;4.53;;
21158;SDS011;10737;45.436;4.390;2023-11-19T13:18:05;4.90;;;4.60;;
21158;SDS011;10737;45.436;4.390;2023-11-19T13:23:09;4.97;;;4.68;;
21158;SDS011;10737;45.436;4.390;2023-11-19T13:28:13;5.80;;;4.75;;
21158;SDS011;10737;45.436;4.390;2023-11-19T13:33:35;8.73;;;5.68;;
21158;SDS011;10737;45.436;4.390;2023-11-19T13:38:38;5.85;;;5.28;;
21158;SDS011;10737;45.436;4.390;2023-11-19T13:43:44;6.25;;;5.65;;
21158;SDS011;10737;45.436;4.390;2023-11-19T13:48:47;14.35;;;10.85;;
21158;SDS011;10737;45.436;4.390;2023-11-19T13:53:51;6.18;;;5.68;;
21158;SDS011;10737;45.436;4.390;2023-11-19T13:58:56;5.90;;;5.30;;
21158;SDS011;10737;45.436;4.390;2023-11-19T14:03:59;6.93;;;4.70;;
21158;SDS011;10737;45.436;4.390;2023-11-19T14:09:02;4.07;;;3.88;;
21158;SDS011;10737;45.436;4.390;2023-11-19T14:14:09;4.28;;;4.00;;
21158;SDS011;10737;45.436;4.390;2023-11-19T14:19:13;4.22;;;3.70;;
21158;SDS011;10737;45.436;4.390;2023-11-19T14:24:16;4.50;;;4.20;;
21158;SDS011;10737;45.436;4.390;2023-11-19T14:29:21;4.50;;;4.10;;
21158;SDS011;10737;45.436;4.390;2023-11-19T14:34:24;4.53;;;4.20;;
21158;SDS011;10737;45.436;4.390;2023-11-19T14:39:46;4.90;;;4.50;;
21158;SDS011;10737;45.436;4.390;2023-11-19T14:45:11;4.80;;;4.50;;
21158;SDS011;10737;45.436;4.390;2023-11-19T14:50:33;5.43;;;5.05;;
21158;SDS011;10737;45.436;4.390;2023-11-19T14:55:36;5.95;;;4.60;;
21158;SDS011;10737;45.436;4.390;2023-11-19T15:00:41;5.00;;;4.70;;
21158;SDS011;10737;45.436;4.390;2023-11-19T15:06:03;5.55;;;5.00;;
21158;SDS011;10737;45.436;4.390;2023-11-19T15:11:06;4.88;;;4.50;;
21158;SDS011;10737;45.436;4.390;2023-11-19T15:16:12;5.22;;;4.82;;
21158;SDS011;10737;45.436;4.390;2023-11-19T15:21:35;5.25;;;4.85;;
21158;SDS011;10737;45.436;4.390;2023-11-19T15:26:38;4.80;;;4.50;;
21158;SDS011;10737;45.436;4.390;2023-11-19T15:31:43;7.20;;;4.70;;
21158;SDS011;10737;45.436;4.390;2023-11-19T15:36:46;4.80;;;4.50;;
21158;SDS011;10737;45.436;4.390;2023-11-19T15:42:08;5.82;;;5.32;;
21158;SDS011;10737;45.436;4.390;2023-11-19T15:47:15;5.97;;;5.53;;
21158;SDS011;10737;45.436;4.390;2023-11-19T15:52:18;5.93;;;5.53;;
21158;SDS011;10737;45.436;4.390;2023-11-19T15:57:21;13.95;;;10.50;;
21158;SDS011;10737;45.436;4.390;2023-11-19T16:02:25;6.32;;;5.93;;
21158;SDS011;10737;45.436;4.390;2023-11-19T16:07:47;10.00;;;9.10;;
21158;SDS011;10737;45.436;4.390;2023-11-19T16:12:50;6.10;;;5.60;;
21158;SDS011;10737;45.436;4.390;2023-11-19T16:17:55;8.05;;;7.25;;
21158;SDS011;10737;45.436;4.390;2023-11-19T16:23:17;5.68;;;5.07;;
21158;SDS011;10737;45.436;4.390;2023-11-19T16:28:21;5.05;;;4.65;;
21158;SDS011;10737;45.436;4.390;2023-11-19T16:33:27;5.57;;;5.07;;
21158;SDS011;10737;45.436;4.390;2023-11-19T16:38:31;6.13;;;5.82;;
21158;SDS011;10737;45.436;4.390;2023-11-19T16:43:35;6.28;;;5.50;;
21158;SDS011;10737;45.436;4.390;2023-11-19T16:48:39;6.15;;;5.68;;
21158;SDS011;10737;45.436;4.390;2023-11-19T16:53:43;10.95;;;9.85;;
21158;SDS011;10737;45.436;4.390;2023-11-19T16:58:48;10.73;;;9.73;;
21158;SDS011;10737;45.436;4.390;2023-11-19T17:03:52;11.65;;;10.48;;
21158;SDS011;10737;45.436;4.390;2023-11-19T17:08:56;9.15;;;8.18;;
21158;SDS011;10737;45.436;4.390;2023-11-19T17:13:59;7.55;;;6.82;;
21158;SDS011;10737;45.436;4.390;2023-11-19T17:19:22;8.48;;;7.68;;
21158;SDS011;10737;45.436;4.390;2023-11-19T17:24:25;8.27;;;7.47;;
21158;SDS011;10737;45.436;4.390;2023-11-19T17:29:28;7.45;;;6.80;;
21158;SDS011;10737;45.436;4.390;2023-11-19T17:34:34;9.20;;;8.40;;
21158;SDS011;10737;45.436;4.390;2023-11-19T17:39:37;14.15;;;10.35;;
21158;SDS011;10737;45.436;4.390;2023-11-19T17:44:40;14.80;;;12.50;;
21158;SDS011;10737;45.436;4.390;2023-11-19T17:49:45;11.88;;;10.65;;
21158;SDS011;10737;45.436;4.390;2023-11-19T17:54:49;29.08;;;22.38;;
21158;SDS011;10737;45.436;4.390;2023-11-19T17:59:52;17.75;;;15.45;;
21158;SDS011;10737;45.436;4.390;2023-11-19T18:04:57;20.90;;;15.98;;
21158;SDS011;10737;45.436;4.390;2023-11-19T18:10:19;24.67;;;20.45;;
21158;SDS011;10737;45.436;4.390;2023-11-19T18:15:22;28.30;;;20.45;;
21158;SDS011;10737;45.436;4.390;2023-11-19T18:20:27;14.43;;;12.82;;
21158;SDS011;10737;45.436;4.390;2023-11-19T18:25:30;11.70;;;10.57;;
21158;SDS011;10737;45.436;4.390;2023-11-19T18:30:37;11.43;;;10.43;;
21158;SDS011;10737;45.436;4.390;2023-11-19T18:35:42;15.52;;;11.52;;
21158;SDS011;10737;45.436;4.390;2023-11-19T18:40:45;16.17;;;11.70;;
21158;SDS011;10737;45.436;4.390;2023-11-19T18:45:48;18.23;;;15.68;;
21158;SDS011;10737;45.436;4.390;2023-11-19T18:50:53;17.38;;;15.10;;
21158;SDS011;10737;45.436;4.390;2023-11-19T18:56:06;17.52;;;15.63;;
21158;SDS011;10737;45.436;4.390;2023-11-19T19:01:09;24.92;;;20.63;;
21158;SDS011;10737;45.436;4.390;2023-11-19T19:06:15;20.00;;;17.48;;
21158;SDS011;10737;45.436;4.390;2023-11-19T19:11:19;16.05;;;13.63;;
21158;SDS011;10737;45.436;4.390;2023-11-19T19:16:23;13.10;;;11.65;;
21158;SDS011;10737;45.436;4.390;2023-11-19T19:21:29;14.82;;;11.95;;
21158;SDS011;10737;45.436;4.390;2023-11-19T19:26:32;18.77;;;15.45;;
21158;SDS011;10737;45.436;4.390;2023-11-19T19:31:35;12.73;;;11.43;;
21158;SDS011;10737;45.436;4.390;2023-11-19T19:36:40;10.45;;;9.48;;
21158;SDS011;10737;45.436;4.390;2023-11-19T19:41:43;12.88;;;9.57;;
21158;SDS011;10737;45.436;4.390;2023-11-19T19:46:46;12.10;;;8.77;;
21158;SDS011;10737;45.436;4.390;2023-11-19T19:51:51;12.25;;;9.05;;
21158;SDS011;10737;45.436;4.390;2023-11-19T19:56:54;16.70;;;11.27;;
21158;SDS011;10737;45.436;4.390;2023-11-19T20:01:58;13.48;;;10.20;;
21158;SDS011;10737;45.436;4.390;2023-11-19T20:07:02;11.73;;;10.27;;
21158;SDS011;10737;45.436;4.390;2023-11-19T20:12:06;13.30;;;10.10;;
21158;SDS011;10737;45.436;4.390;2023-11-19T20:17:10;10.68;;;8.95;;
21158;SDS011;10737;45.436;4.390;2023-11-19T20:22:15;8.95;;;8.25;;
21158;SDS011;10737;45.436;4.390;2023-11-19T20:27:18;8.73;;;7.85;;
21158;SDS011;10737;45.436;4.390;2023-11-19T20:32:22;9.90;;;9.07;;
21158;SDS011;10737;45.436;4.390;2023-11-19T20:37:46;9.43;;;8.52;;
21158;SDS011;10737;45.436;4.390;2023-11-19T20:42:49;9.98;;;8.82;;
21158;SDS011;10737;45.436;4.390;2023-11-19T20:47:53;10.02;;;9.07;;
21158;SDS011;10737;45.436;4.390;2023-11-19T20:52:58;9.07;;;7.65;;
21158;SDS011;10737;45.436;4.390;2023-11-19T20:58:20;11.15;;;9.52;;
21158;SDS011;10737;45.436;4.390;2023-11-19T21:03:23;13.05;;;10.20;;
21158;SDS011;10737;45.436;4.390;2023-11-19T21:08:28;10.35;;;9.45;;
21158;SDS011;10737;45.436;4.390;2023-11-19T21:13:31;16.75;;;12.25;;
21158;SDS011;10737;45.436;4.390;2023-11-19T21:18:34;24.95;;;18.20;;
21158;SDS011;10737;45.436;4.390;2023-11-19T21:23:40;12.50;;;11.32;;
21158;SDS011;10737;45.436;4.390;2023-11-19T21:28:43;13.95;;;11.57;;
21158;SDS011;10737;45.436;4.390;2023-11-19T21:33:46;15.45;;;13.18;;
21158;SDS011;10737;45.436;4.390;2023-11-19T21:39:09;11.85;;;10.73;;
21158;SDS011;10737;45.436;4.390;2023-11-19T21:44:14;14.05;;;11.07;;
21158;SDS011;10737;45.436;4.390;2023-11-19T21:49:17;11.68;;;9.73;;
21158;SDS011;10737;45.436;4.390;2023-11-19T21:54:21;11.80;;;9.05;;
21158;SDS011;10737;45.436;4.390;2023-11-19T21:59:25;11.20;;;9.30;;
21158;SDS011;10737;45.436;4.390;2023-11-19T22:04:28;8.27;;;7.38;;
21158;SDS011;10737;45.436;4.390;2023-11-19T22:09:32;9.38;;;8.43;;
21158;SDS011;10737;45.436;4.390;2023-11-19T22:14:36;8.07;;;7.28;;
21158;SDS011;10737;45.436;4.390;2023-11-19T22:19:39;11.25;;;8.63;;
21158;SDS011;10737;45.436;4.390;2023-11-19T22:24:43;8.90;;;8.18;;
21158;SDS011;10737;45.436;4.390;2023-11-19T22:30:05;8.77;;;7.97;;
21158;SDS011;10737;45.436;4.390;2023-11-19T22:35:10;7.95;;;7.10;;
21158;SDS011;10737;45.436;4.390;2023-11-19T22:40:17;7.95;;;7.28;;
21158;SDS011;10737;45.436;4.390;2023-11-19T22:45:20;7.63;;;7.03;;
21158;SDS011;10737;45.436;4.390;2023-11-19T22:50:23;7.45;;;6.65;;
21158;SDS011;10737;45.436;4.390;2023-11-19T22:55:27;7.30;;;6.65;;
21158;SDS011;10737;45.436;4.390;2023-11-19T23:00:31;6.45;;;5.93;;
21158;SDS011;10737;45.436;4.390;2023-11-19T23:05:53;6.72;;;6.18;;
21158;SDS011;10737;45.436;4.390;2023-11-19T23:10:58;6.80;;;6.10;;
21158;SDS011;10737;45.436;4.390;2023-11-19T23:16:01;6.63;;;6.03;;
21158;SDS011;10737;45.436;4.390;2023-11-19T23:21:04;7.78;;;7.05;;
21158;SDS011;10737;45.436;4.390;2023-11-19T23:26:10;8.75;;;7.10;;
21158;SDS011;10737;45.436;4.390;2023-11-19T23:31:16;6.72;;;6.13;;
21158;SDS011;10737;45.436;4.390;2023-11-19T23:36:20;7.97;;;7.18;;
21158;SDS011;10737;45.436;4.390;2023-11-19T23:41:25;6.65;;;6.05;;
21158;SDS011;10737;45.436;4.390;2023-11-19T23:46:29;6.43;;;5.93;;
21158;SDS011;10737;45.436;4.390;2023-11-19T23:51:33;6.45;;;5.85;;
21158;SDS011;10737;45.436;4.390;2023-11-19T23:56:40;7.25;;;6.60;;
